createdAt,value
2024-05-09T00:00:31.508Z,976.0215
2024-05-09T00:01:28.816Z,976.0292
2024-05-09T00:02:29.710Z,976.0259
2024-05-09T00:03:31.216Z,976.0239
2024-05-09T00:04:32.750Z,976.0177
2024-05-09T00:05:34.481Z,976.0223
2024-05-09T00:06:35.749Z,976.0131
2024-05-09T00:07:37.282Z,976.0092
2024-05-09T00:08:38.894Z,976.0062
2024-05-09T00:09:40.329Z,975.9930
2024-05-09T00:10:41.862Z,975.9877
2024-05-09T00:11:44.373Z,975.9885
2024-05-09T00:12:44.928Z,975.9750
2024-05-09T00:13:46.519Z,975.9738
2024-05-09T00:14:48.061Z,975.9639
2024-05-09T00:15:49.492Z,975.9547
2024-05-09T00:16:51.085Z,975.9446
2024-05-09T00:17:52.741Z,975.9539
2024-05-09T00:18:54.250Z,975.9400
2024-05-09T00:19:55.846Z,975.9346
2024-05-09T00:20:57.163Z,975.9300
2024-05-09T00:21:58.670Z,975.9285
2024-05-09T00:23:00.248Z,975.9208
2024-05-09T00:24:01.717Z,975.9238
2024-05-09T00:25:03.278Z,975.9115
2024-05-09T00:26:04.806Z,975.8985
2024-05-09T00:27:06.380Z,975.8885
2024-05-09T00:28:07.873Z,975.8900
2024-05-09T00:29:09.482Z,975.8870
2024-05-09T00:30:17.455Z,975.8839
2024-05-09T00:31:12.449Z,975.8738
2024-05-09T00:32:14.128Z,975.8770
2024-05-09T00:33:15.693Z,975.8823
2024-05-09T00:34:17.102Z,975.8900
2024-05-09T00:35:18.698Z,975.8730
2024-05-09T00:36:20.089Z,975.8523
2024-05-09T00:37:21.599Z,975.8561
2024-05-09T00:38:23.248Z,975.8553
2024-05-09T00:39:24.679Z,975.8439
2024-05-09T00:40:34.683Z,975.8538
2024-05-09T00:41:27.899Z,975.8416
2024-05-09T00:42:29.274Z,975.8423
2024-05-09T00:43:30.793Z,975.8400
2024-05-09T00:44:32.346Z,975.8285
2024-05-09T00:45:33.851Z,975.8246
2024-05-09T00:46:35.422Z,975.8115
2024-05-09T00:47:37.009Z,975.8262
2024-05-09T00:48:38.563Z,975.8308
2024-05-09T00:49:40.034Z,975.8300
2024-05-09T00:50:42.111Z,975.8208
2024-05-09T00:51:43.054Z,975.8200
2024-05-09T00:52:44.664Z,975.8092
2024-05-09T00:53:46.147Z,975.8092
2024-05-09T00:54:47.633Z,975.8062
2024-05-09T00:55:49.216Z,975.7908
2024-05-09T00:56:50.738Z,975.7792
2024-05-09T00:57:52.243Z,975.7608
2024-05-09T00:58:53.810Z,975.7438
2024-05-09T00:59:55.303Z,975.7469
2024-05-09T01:00:56.894Z,975.7223
2024-05-09T01:01:58.544Z,975.7115
2024-05-09T01:03:00.033Z,975.6977
2024-05-09T01:04:01.552Z,975.7184
2024-05-09T01:05:03.054Z,975.7346
2024-05-09T01:06:04.518Z,975.7238
2024-05-09T01:07:06.085Z,975.7261
2024-05-09T01:08:07.711Z,975.7253
2024-05-09T01:09:09.069Z,975.7039
2024-05-09T01:10:17.030Z,975.6870
2024-05-09T01:11:12.323Z,975.6577
2024-05-09T01:12:13.926Z,975.6546
2024-05-09T01:13:15.218Z,975.6415
2024-05-09T01:14:16.784Z,975.6362
2024-05-09T01:15:18.292Z,975.6277
2024-05-09T01:16:19.801Z,975.6177
2024-05-09T01:17:21.462Z,975.6053
2024-05-09T01:18:22.971Z,975.5923
2024-05-09T01:19:24.462Z,975.5839
2024-05-09T01:20:36.897Z,975.5746
2024-05-09T01:21:27.480Z,975.5709
2024-05-09T01:22:29.382Z,975.5770
2024-05-09T01:23:30.729Z,975.5746
2024-05-09T01:24:32.052Z,975.5762
2024-05-09T01:25:33.580Z,975.5670
2024-05-09T01:26:35.156Z,975.5677
2024-05-09T01:27:36.825Z,975.5731
2024-05-09T01:28:38.188Z,975.5685
2024-05-09T01:29:39.721Z,975.5746
2024-05-09T01:30:41.277Z,975.5869
2024-05-09T01:31:42.887Z,975.5954
2024-05-09T01:32:44.499Z,975.5562
2024-05-09T01:33:46.014Z,975.5623
2024-05-09T01:34:47.412Z,975.5877
2024-05-09T01:35:48.944Z,975.5969
2024-05-09T01:36:50.453Z,975.5984
2024-05-09T01:37:52.016Z,975.6008
2024-05-09T01:38:53.512Z,975.5839
2024-05-09T01:39:55.046Z,975.5854
2024-05-09T01:40:56.669Z,975.6123
2024-05-09T01:41:58.096Z,975.6254
2024-05-09T01:42:59.656Z,975.6516
2024-05-09T01:44:01.214Z,975.6285
2024-05-09T01:45:02.716Z,975.6023
2024-05-09T01:46:04.233Z,975.5977
2024-05-09T01:47:05.866Z,975.5923
2024-05-09T01:48:07.480Z,975.5662
2024-05-09T01:49:08.982Z,975.5523
2024-05-09T01:50:11.087Z,975.5485
2024-05-09T01:51:12.136Z,975.5361
2024-05-09T01:52:13.440Z,975.5247
2024-05-09T01:53:15.566Z,975.5154
2024-05-09T01:54:16.514Z,975.5092
2024-05-09T01:55:18.025Z,975.5062
2024-05-09T01:56:19.565Z,975.5100
2024-05-09T01:57:21.132Z,975.5115
2024-05-09T01:58:22.635Z,975.5070
2024-05-09T01:59:24.272Z,975.5031
2024-05-09T02:00:34.199Z,975.5123
2024-05-09T02:01:27.211Z,975.5223
2024-05-09T02:02:28.804Z,975.5323
2024-05-09T02:03:30.455Z,975.5316
2024-05-09T02:04:31.984Z,975.5223
2024-05-09T02:05:33.476Z,975.5208
2024-05-09T02:06:34.876Z,975.5170
2024-05-09T02:07:36.399Z,975.5215
2024-05-09T02:08:38.014Z,975.5123
2024-05-09T02:09:39.462Z,975.5077
2024-05-09T02:10:41.125Z,975.4977
2024-05-09T02:11:42.589Z,975.4900
2024-05-09T02:12:44.066Z,975.4823
2024-05-09T02:13:45.631Z,975.4800
2024-05-09T02:14:47.121Z,975.4684
2024-05-09T02:15:48.652Z,975.4631
2024-05-09T02:16:50.267Z,975.4615
2024-05-09T02:17:51.928Z,975.4547
2024-05-09T02:18:53.301Z,975.4477
2024-05-09T02:19:54.890Z,975.4539
2024-05-09T02:20:56.369Z,975.4646
2024-05-09T02:21:57.887Z,975.4623
2024-05-09T02:22:59.433Z,975.4600
2024-05-09T02:24:00.935Z,975.4539
2024-05-09T02:25:02.485Z,975.4515
2024-05-09T02:26:04.034Z,975.4554
2024-05-09T02:27:05.520Z,975.4569
2024-05-09T02:28:07.033Z,975.4692
2024-05-09T02:29:08.704Z,975.4669
2024-05-09T02:30:18.698Z,975.4569
2024-05-09T02:31:11.719Z,975.4646
2024-05-09T02:32:13.447Z,975.4753
2024-05-09T02:33:15.092Z,975.4761
2024-05-09T02:34:16.383Z,975.4785
2024-05-09T02:35:17.860Z,975.4861
2024-05-09T02:36:19.383Z,975.4962
2024-05-09T02:37:20.893Z,975.4777
2024-05-09T02:38:22.511Z,975.4708
2024-05-09T02:39:23.954Z,975.4769
2024-05-09T02:40:33.564Z,975.4700
2024-05-09T02:41:27.149Z,975.4523
2024-05-09T02:42:28.560Z,975.4547
2024-05-09T02:43:30.133Z,975.4362
2024-05-09T02:44:31.723Z,975.4123
2024-05-09T02:46:34.698Z,975.3831
2024-05-09T02:47:36.351Z,975.3785
2024-05-09T02:48:37.906Z,975.3654
2024-05-09T02:49:39.347Z,975.3523
2024-05-09T02:50:41.178Z,975.3439
2024-05-09T02:51:42.338Z,975.3423
2024-05-09T02:52:43.956Z,975.3439
2024-05-09T02:53:45.464Z,975.3446
2024-05-09T02:54:46.934Z,975.3439
2024-05-09T02:55:48.511Z,975.3523
2024-05-09T02:56:50.017Z,975.3646
2024-05-09T02:57:51.545Z,975.3723
2024-05-09T02:58:53.084Z,975.3730
2024-05-09T02:59:54.619Z,975.3770
2024-05-09T03:00:56.229Z,975.3638
2024-05-09T03:01:57.801Z,975.3553
2024-05-09T03:02:59.366Z,975.3561
2024-05-09T03:04:00.985Z,975.3531
2024-05-09T03:05:02.328Z,975.3484
2024-05-09T03:06:03.801Z,975.3546
2024-05-09T03:07:05.367Z,975.3461
2024-05-09T03:08:07.088Z,975.3431
2024-05-09T03:09:08.421Z,975.3561
2024-05-09T03:10:18.247Z,975.3661
2024-05-09T03:11:11.605Z,975.3638
2024-05-09T03:12:13.171Z,975.3646
2024-05-09T03:13:15.928Z,975.3608
2024-05-09T03:14:16.135Z,975.3362
2024-05-09T03:15:17.622Z,975.3308
2024-05-09T03:16:19.109Z,975.3239
2024-05-09T03:17:20.889Z,975.3170
2024-05-09T03:18:22.322Z,975.3239
2024-05-09T03:19:23.808Z,975.3192
2024-05-09T03:20:32.416Z,975.3215
2024-05-09T03:21:26.789Z,975.3246
2024-05-09T03:22:28.311Z,975.3246
2024-05-09T03:23:29.976Z,975.3315
2024-05-09T03:24:31.368Z,975.3400
2024-05-09T03:25:32.895Z,975.3477
2024-05-09T03:26:35.412Z,975.3515
2024-05-09T03:27:35.990Z,975.3538
2024-05-09T03:28:37.501Z,975.3246
2024-05-09T03:29:39.089Z,975.3138
2024-05-09T03:30:42.887Z,975.3008
2024-05-09T03:31:42.179Z,975.2908
2024-05-09T03:32:43.808Z,975.2800
2024-05-09T03:33:45.397Z,975.2877
2024-05-09T03:34:46.753Z,975.2885
2024-05-09T03:35:48.794Z,975.2885
2024-05-09T03:36:49.792Z,975.2785
2024-05-09T03:37:51.365Z,975.2777
2024-05-09T03:38:52.811Z,975.2777
2024-05-09T03:39:54.359Z,975.2792
2024-05-09T03:40:55.921Z,975.2816
2024-05-09T03:41:57.419Z,975.2800
2024-05-09T03:42:59.076Z,975.2885
2024-05-09T03:44:00.612Z,975.2877
2024-05-09T03:45:02.020Z,975.2885
2024-05-09T03:46:03.553Z,975.2953
2024-05-09T03:47:05.128Z,975.3000
2024-05-09T03:48:06.748Z,975.2961
2024-05-09T03:49:08.318Z,975.3154
2024-05-09T03:50:18.008Z,975.2969
2024-05-09T03:51:11.309Z,975.2938
2024-05-09T03:52:12.750Z,975.3008
2024-05-09T03:53:14.502Z,975.3046
2024-05-09T03:54:15.822Z,975.3023
2024-05-09T03:55:17.353Z,975.3138
2024-05-09T03:56:18.973Z,975.3308
2024-05-09T03:57:20.420Z,975.3439
2024-05-09T03:58:21.929Z,975.3377
2024-05-09T03:59:23.488Z,975.3546
2024-05-09T04:00:31.674Z,975.3661
2024-05-09T04:01:26.626Z,975.3700
2024-05-09T04:02:28.184Z,975.3669
2024-05-09T04:03:29.797Z,975.3823
2024-05-09T04:04:31.318Z,975.3885
2024-05-09T04:05:32.947Z,975.3900
2024-05-09T04:06:34.191Z,975.3985
2024-05-09T04:07:35.737Z,975.4039
2024-05-09T04:08:37.391Z,975.3939
2024-05-09T04:09:38.801Z,975.3877
2024-05-09T04:10:40.378Z,975.3792
2024-05-09T04:11:41.943Z,975.3685
2024-05-09T04:12:43.380Z,975.3638
2024-05-09T04:13:44.960Z,975.3646
2024-05-09T04:14:46.451Z,975.3754
2024-05-09T04:15:48.011Z,975.3730
2024-05-09T04:16:49.524Z,975.3700
2024-05-09T04:17:51.315Z,975.3762
2024-05-09T04:18:52.803Z,975.3854
2024-05-09T04:19:54.192Z,975.3885
2024-05-09T04:20:55.788Z,975.4031
2024-05-09T04:21:57.212Z,975.4115
2024-05-09T04:22:58.752Z,975.4169
2024-05-09T04:24:00.255Z,975.4292
2024-05-09T04:25:01.786Z,975.4269
2024-05-09T04:26:03.387Z,975.4338
2024-05-09T04:27:04.862Z,975.4330
2024-05-09T04:28:06.408Z,975.4315
2024-05-09T04:29:07.945Z,975.4338
2024-05-09T04:30:15.472Z,975.4454
2024-05-09T04:31:10.970Z,975.4523
2024-05-09T04:32:12.691Z,975.4385
2024-05-09T04:33:14.953Z,975.4431
2024-05-09T04:34:15.739Z,975.4462
2024-05-09T04:35:17.922Z,975.4515
2024-05-09T04:36:18.636Z,975.4600
2024-05-09T04:37:20.199Z,975.4608
2024-05-09T04:38:21.763Z,975.4723
2024-05-09T04:39:23.240Z,975.4954
2024-05-09T04:40:31.613Z,975.5008
2024-05-09T04:41:26.391Z,975.5154
2024-05-09T04:42:27.841Z,975.5208
2024-05-09T04:43:29.378Z,975.5362
2024-05-09T04:44:30.948Z,975.5577
2024-05-09T04:45:32.429Z,975.5700
2024-05-09T04:46:33.956Z,975.5623
2024-05-09T04:47:35.669Z,975.5831
2024-05-09T04:48:37.192Z,975.5877
2024-05-09T04:49:38.670Z,975.5869
2024-05-09T04:50:40.305Z,975.5723
2024-05-09T04:51:41.622Z,975.5785
2024-05-09T04:52:43.142Z,975.5677
2024-05-09T04:53:44.899Z,975.5739
2024-05-09T04:54:46.267Z,975.5754
2024-05-09T04:55:47.852Z,975.5847
2024-05-09T04:56:49.317Z,975.5677
2024-05-09T04:57:50.780Z,975.5708
2024-05-09T04:58:52.369Z,975.5862
2024-05-09T04:59:53.849Z,975.6054
2024-05-09T05:00:55.423Z,975.6061
2024-05-09T05:01:57.950Z,975.5923
2024-05-09T05:02:58.614Z,975.5939
2024-05-09T05:04:00.090Z,975.6077
2024-05-09T05:05:01.606Z,975.6038
2024-05-09T05:06:03.138Z,975.6092
2024-05-09T05:07:04.568Z,975.6015
2024-05-09T05:08:06.264Z,975.6023
2024-05-09T05:09:07.627Z,975.6031
2024-05-09T05:10:11.923Z,975.6192
2024-05-09T05:11:10.775Z,975.6130
2024-05-09T05:12:12.416Z,975.6154
2024-05-09T05:13:13.745Z,975.6246
2024-05-09T05:14:15.318Z,975.6392
2024-05-09T05:15:16.799Z,975.6623
2024-05-09T05:16:18.341Z,975.6754
2024-05-09T05:17:19.928Z,975.6730
2024-05-09T05:18:21.527Z,975.6923
2024-05-09T05:19:23.004Z,975.6970
2024-05-09T05:20:32.575Z,975.6954
2024-05-09T05:21:26.189Z,975.6791
2024-05-09T05:22:27.548Z,975.6885
2024-05-09T05:23:29.149Z,975.7023
2024-05-09T05:24:30.610Z,975.6992
2024-05-09T05:25:32.111Z,975.6985
2024-05-09T05:26:33.770Z,975.7069
2024-05-09T05:27:35.212Z,975.7047
2024-05-09T05:28:36.730Z,975.7131
2024-05-09T05:29:38.376Z,975.6954
2024-05-09T05:30:39.798Z,975.6931
2024-05-09T05:31:41.362Z,975.6946
2024-05-09T05:32:42.989Z,975.6931
2024-05-09T05:33:44.422Z,975.6900
2024-05-09T05:34:46.030Z,975.7031
2024-05-09T05:35:47.536Z,975.7177
2024-05-09T05:36:48.954Z,975.7292
2024-05-09T05:37:50.585Z,975.7415
2024-05-09T05:38:52.165Z,975.7508
2024-05-09T05:39:53.565Z,975.7492
2024-05-09T05:40:55.267Z,975.7500
2024-05-09T05:41:57.442Z,975.7462
2024-05-09T05:42:58.149Z,975.7477
2024-05-09T05:43:59.721Z,975.7400
2024-05-09T05:45:01.217Z,975.7462
2024-05-09T05:46:02.778Z,975.7369
2024-05-09T05:47:04.417Z,975.7308
2024-05-09T05:48:06.612Z,975.7430
2024-05-09T05:49:07.425Z,975.7554
2024-05-09T05:50:20.481Z,975.7538
2024-05-09T05:51:10.439Z,975.7654
2024-05-09T05:52:11.952Z,975.7631
2024-05-09T05:53:13.727Z,975.7639
2024-05-09T05:54:14.994Z,975.7654
2024-05-09T05:55:16.531Z,975.7623
2024-05-09T05:56:18.099Z,975.7500
2024-05-09T05:57:19.580Z,975.7454
2024-05-09T05:58:21.101Z,975.7377
2024-05-09T05:59:22.815Z,975.7308
2024-05-09T06:00:30.398Z,975.7438
2024-05-09T06:01:25.766Z,975.7485
2024-05-09T06:02:27.311Z,975.7423
2024-05-09T06:03:28.791Z,975.7469
2024-05-09T06:04:30.356Z,975.7438
2024-05-09T06:05:32.146Z,975.7462
2024-05-09T06:06:33.354Z,975.7554
2024-05-09T06:07:34.904Z,975.7562
2024-05-09T06:08:36.463Z,975.7608
2024-05-09T06:09:37.946Z,975.7662
2024-05-09T06:10:41.026Z,975.7708
2024-05-09T06:11:41.085Z,975.7654
2024-05-09T06:12:42.555Z,975.7623
2024-05-09T06:13:44.141Z,975.7785
2024-05-09T06:14:45.594Z,975.8038
2024-05-09T06:15:47.147Z,975.8062
2024-05-09T06:16:48.694Z,975.7985
2024-05-09T06:17:50.331Z,975.8123
2024-05-09T06:18:51.973Z,975.8223
2024-05-09T06:19:53.738Z,975.8215
2024-05-09T06:20:54.850Z,975.8130
2024-05-09T06:21:56.321Z,975.8092
2024-05-09T06:22:57.878Z,975.8177
2024-05-09T06:23:59.430Z,975.8208
2024-05-09T06:25:00.934Z,975.8239
2024-05-09T06:26:02.968Z,975.8354
2024-05-09T06:27:04.021Z,975.8309
2024-05-09T06:28:05.501Z,975.8270
2024-05-09T06:29:07.103Z,975.8239
2024-05-09T06:30:14.381Z,975.8200
2024-05-09T06:31:10.114Z,975.7961
2024-05-09T06:32:11.818Z,975.8000
2024-05-09T06:33:15.450Z,975.7946
2024-05-09T06:34:14.898Z,975.7900
2024-05-09T06:35:16.947Z,975.7946
2024-05-09T06:36:17.837Z,975.7933
2024-05-09T06:37:19.383Z,975.7869
2024-05-09T06:38:20.904Z,975.7715
2024-05-09T06:39:22.408Z,975.7430
2024-05-09T06:40:29.259Z,975.7469
2024-05-09T06:41:25.575Z,975.7430
2024-05-09T06:42:27.033Z,975.7570
2024-05-09T06:43:28.539Z,975.7670
2024-05-09T06:44:30.214Z,975.7708
2024-05-09T06:45:31.609Z,975.7623
2024-05-09T06:46:33.126Z,975.7631
2024-05-09T06:47:34.812Z,975.7685
2024-05-09T06:48:36.299Z,975.7662
2024-05-09T06:49:37.910Z,975.7785
2024-05-09T06:50:40.054Z,975.7854
2024-05-09T06:51:40.781Z,975.7662
2024-05-09T06:52:42.313Z,975.7570
2024-05-09T06:53:43.843Z,975.7508
2024-05-09T06:54:45.936Z,975.7546
2024-05-09T06:55:47.038Z,975.7466
2024-05-09T06:56:48.405Z,975.7477
2024-05-09T06:57:49.943Z,975.7415
2024-05-09T06:58:51.498Z,975.7500
2024-05-09T06:59:53.023Z,975.7354
2024-05-09T07:00:54.567Z,975.7277
2024-05-09T07:01:56.154Z,975.7223
2024-05-09T07:02:58.985Z,975.7184
2024-05-09T07:03:59.210Z,975.7177
2024-05-09T07:05:00.931Z,975.7131
2024-05-09T07:06:02.251Z,975.7330
2024-05-09T07:07:03.689Z,975.7430
2024-05-09T07:08:05.998Z,975.7415
2024-05-09T07:09:07.462Z,975.7475
2024-05-09T07:10:14.798Z,975.7383
2024-05-09T07:11:09.919Z,975.7184
2024-05-09T07:12:11.471Z,975.7039
2024-05-09T07:13:13.063Z,975.7054
2024-05-09T07:14:14.466Z,975.7123
2024-05-09T07:15:15.945Z,975.7253
2024-05-09T07:16:17.442Z,975.7200
2024-05-09T07:17:19.101Z,975.7154
2024-05-09T07:18:20.933Z,975.7231
2024-05-09T07:19:22.149Z,975.7161
2024-05-09T07:20:32.121Z,975.7131
2024-05-09T07:21:25.130Z,975.6908
2024-05-09T07:22:26.612Z,975.6838
2024-05-09T07:23:28.299Z,975.6808
2024-05-09T07:24:29.659Z,975.6954
2024-05-09T07:25:31.235Z,975.6954
2024-05-09T07:26:33.022Z,975.6923
2024-05-09T07:27:34.268Z,975.6900
2024-05-09T07:28:35.804Z,975.6761
2024-05-09T07:29:38.860Z,975.6600
2024-05-09T07:30:38.841Z,975.6754
2024-05-09T07:31:40.412Z,975.6846
2024-05-09T07:32:42.010Z,975.6870
2024-05-09T07:33:43.497Z,975.6915
2024-05-09T07:34:45.113Z,975.6877
2024-05-09T07:35:46.550Z,975.6723
2024-05-09T07:36:48.043Z,975.6539
2024-05-09T07:37:49.622Z,975.6415
2024-05-09T07:38:51.106Z,975.6285
2024-05-09T07:39:52.586Z,975.6185
2024-05-09T07:40:54.122Z,975.6061
2024-05-09T07:41:55.630Z,975.5831
2024-05-09T07:42:57.154Z,975.5608
2024-05-09T07:43:58.746Z,975.5554
2024-05-09T07:45:17.132Z,975.5461
2024-05-09T07:46:51.610Z,975.5247
2024-05-09T07:48:14.149Z,975.5085
2024-05-09T07:53:29.195Z,975.5062
2024-05-09T07:53:37.196Z,975.5085
2024-05-09T07:54:14.144Z,975.5292
2024-05-09T07:55:15.655Z,975.5292
2024-05-09T07:56:17.754Z,975.5400
2024-05-09T07:57:18.691Z,975.5677
2024-05-09T07:58:20.059Z,975.5777
2024-05-09T07:59:21.635Z,975.5885
2024-05-09T08:00:29.753Z,975.6123
2024-05-09T08:01:24.822Z,975.6161
2024-05-09T08:02:26.461Z,975.6130
2024-05-09T08:03:27.787Z,975.6077
2024-05-09T08:04:29.434Z,975.6138
2024-05-09T08:05:31.058Z,975.6331
2024-05-09T08:06:32.336Z,975.6400
2024-05-09T08:07:33.844Z,975.6323
2024-05-09T08:08:35.390Z,975.6315
2024-05-09T08:09:38.394Z,975.6308
2024-05-09T08:10:38.499Z,975.6346
2024-05-09T08:11:39.966Z,975.6169
2024-05-09T08:12:41.545Z,975.6031
2024-05-09T08:13:43.036Z,975.5946
2024-05-09T08:14:44.547Z,975.5862
2024-05-09T08:15:47.002Z,975.5708
2024-05-09T08:16:48.468Z,975.5408
2024-05-09T08:17:49.168Z,975.5308
2024-05-09T08:18:50.806Z,975.5139
2024-05-09T08:19:52.246Z,975.5038
2024-05-09T08:20:53.734Z,975.5131
2024-05-09T08:21:55.556Z,975.5277
2024-05-09T08:22:56.815Z,975.5269
2024-05-09T08:23:58.330Z,975.5239
2024-05-09T08:24:59.926Z,975.5392
2024-05-09T08:26:01.373Z,975.5346
2024-05-09T08:27:02.933Z,975.5400
2024-05-09T08:28:04.549Z,975.5385
2024-05-09T08:29:05.979Z,975.5400
2024-05-09T08:30:10.219Z,975.5431
2024-05-09T08:31:09.080Z,975.5508
2024-05-09T08:32:10.617Z,975.5515
2024-05-09T08:33:12.200Z,975.5523
2024-05-09T08:34:13.832Z,975.5670
2024-05-09T08:35:15.178Z,975.5723
2024-05-09T08:36:16.673Z,975.5847
2024-05-09T08:37:22.493Z,975.5800
2024-05-09T08:38:19.739Z,975.5823
2024-05-09T08:39:21.274Z,975.5954
2024-05-09T08:40:30.701Z,975.5946
2024-05-09T08:41:24.331Z,975.6053
2024-05-09T08:42:25.859Z,975.6215
2024-05-09T08:43:27.406Z,975.6331
2024-05-09T08:44:28.955Z,975.6238
2024-05-09T08:45:30.596Z,975.5715
2024-05-09T08:46:32.035Z,975.5800
2024-05-09T08:47:33.555Z,975.6023
2024-05-09T08:48:35.177Z,975.6185
2024-05-09T08:49:37.777Z,975.6238
2024-05-09T08:50:39.706Z,975.6285
2024-05-09T08:51:39.691Z,975.6331
2024-05-09T08:52:41.974Z,975.6169
2024-05-09T08:53:42.703Z,975.6146
2024-05-09T08:54:44.246Z,975.6169
2024-05-09T08:55:45.784Z,975.6223
2024-05-09T08:56:47.254Z,975.6185
2024-05-09T08:57:48.820Z,975.6031
2024-05-09T08:58:50.346Z,975.5939
2024-05-09T08:59:51.852Z,975.5900
2024-05-09T09:00:53.513Z,975.5800
2024-05-09T09:01:55.043Z,975.5785
2024-05-09T09:02:57.020Z,975.5654
2024-05-09T09:03:58.038Z,975.5508
2024-05-09T09:04:59.660Z,975.5369
2024-05-09T09:06:01.058Z,975.5369
2024-05-09T09:07:03.629Z,975.5285
2024-05-09T09:08:04.079Z,975.5154
2024-05-09T09:09:05.626Z,975.5154
2024-05-09T09:10:08.715Z,975.5146
2024-05-09T09:11:08.672Z,975.4946
2024-05-09T09:12:10.771Z,975.4738
2024-05-09T09:13:11.852Z,975.4823
2024-05-09T09:14:13.251Z,975.4808
2024-05-09T09:15:14.811Z,975.4623
2024-05-09T09:16:16.382Z,975.4753
2024-05-09T09:17:17.908Z,975.4623
2024-05-09T09:18:19.563Z,975.4631
2024-05-09T09:19:21.146Z,975.4577
2024-05-09T09:20:26.571Z,975.4661
2024-05-09T09:21:23.947Z,975.4615
2024-05-09T09:22:25.493Z,975.4547
2024-05-09T09:23:27.032Z,975.4585
2024-05-09T09:24:28.611Z,975.4485
2024-05-09T09:25:30.093Z,975.4477
2024-05-09T09:26:31.595Z,975.4485
2024-05-09T09:27:33.169Z,975.4492
2024-05-09T09:28:34.663Z,975.4515
2024-05-09T09:29:36.601Z,975.4492
2024-05-09T09:30:38.265Z,975.4617
2024-05-09T09:31:39.320Z,975.4608
2024-05-09T09:32:40.880Z,975.4646
2024-05-09T09:33:42.488Z,975.4715
2024-05-09T09:34:43.964Z,975.4892
2024-05-09T09:35:45.355Z,975.5139
2024-05-09T09:36:46.966Z,975.5215
2024-05-09T09:37:48.396Z,975.5223
2024-05-09T09:38:49.940Z,975.5262
2024-05-09T09:39:51.555Z,975.5108
2024-05-09T09:40:53.037Z,975.4977
2024-05-09T09:41:54.521Z,975.4869
2024-05-09T09:42:56.118Z,975.4677
2024-05-09T09:43:57.570Z,975.4546
2024-05-09T09:45:04.896Z,975.4323
2024-05-09T09:46:00.684Z,975.4459
2024-05-09T09:47:02.191Z,975.4592
2024-05-09T09:48:03.784Z,975.4654
2024-05-09T09:49:05.639Z,975.4800
2024-05-09T09:50:12.040Z,975.5175
2024-05-09T09:51:08.308Z,975.5339
2024-05-09T09:52:11.411Z,975.5339
2024-05-09T09:53:11.320Z,975.5575
2024-05-09T09:54:12.891Z,975.5638
2024-05-09T09:55:14.549Z,975.5646
2024-05-09T09:56:15.937Z,975.5662
2024-05-09T09:57:17.447Z,975.5670
2024-05-09T09:58:19.048Z,975.5731
2024-05-09T09:59:20.514Z,975.5862
2024-05-09T10:00:27.163Z,975.5908
2024-05-09T10:01:23.602Z,975.5746
2024-05-09T10:02:25.231Z,975.5800
2024-05-09T10:03:26.696Z,975.5831
2024-05-09T10:04:28.244Z,975.5739
2024-05-09T10:05:30.105Z,975.5700
2024-05-09T10:06:31.240Z,975.5630
2024-05-09T10:07:32.724Z,975.5800
2024-05-09T10:08:35.005Z,975.5685
2024-05-09T10:09:36.054Z,975.5623
2024-05-09T10:10:37.392Z,975.5600
2024-05-09T10:11:45.176Z,975.5239
2024-05-09T10:12:40.388Z,975.5231
2024-05-09T10:13:41.928Z,975.5231
2024-05-09T10:14:43.431Z,975.5208
2024-05-09T10:15:44.978Z,975.5170
2024-05-09T10:16:46.496Z,975.5046
2024-05-09T10:17:48.080Z,975.4753
2024-05-09T10:18:49.635Z,975.4723
2024-05-09T10:19:51.130Z,975.4600
2024-05-09T10:20:52.598Z,975.4577
2024-05-09T10:21:54.161Z,975.4438
2024-05-09T10:22:55.635Z,975.4254
2024-05-09T10:23:57.183Z,975.4153
2024-05-09T10:24:59.177Z,975.3947
2024-05-09T10:26:00.278Z,975.3823
2024-05-09T10:27:01.770Z,975.3785
2024-05-09T10:28:03.330Z,975.3677
2024-05-09T10:29:04.785Z,975.3600
2024-05-09T10:30:11.563Z,975.3354
2024-05-09T10:31:08.054Z,975.3354
2024-05-09T10:32:09.395Z,975.3439
2024-05-09T10:33:11.148Z,975.3285
2024-05-09T10:34:12.633Z,975.3130
2024-05-09T10:35:14.035Z,975.3100
2024-05-09T10:36:15.605Z,975.3108
2024-05-09T10:37:17.195Z,975.3146
2024-05-09T10:38:18.643Z,975.3246
2024-05-09T10:39:20.164Z,975.3077
2024-05-09T10:41:23.372Z,975.3185
2024-05-09T10:42:24.740Z,975.3062
2024-05-09T10:43:26.323Z,975.2916
2024-05-09T10:44:27.822Z,975.2747
2024-05-09T10:45:29.379Z,975.2670
2024-05-09T10:46:30.987Z,975.2446
2024-05-09T10:47:32.589Z,975.2269
2024-05-09T10:48:34.038Z,975.2100
2024-05-09T10:49:35.543Z,975.2192
2024-05-09T10:50:37.003Z,975.2015
2024-05-09T10:51:39.136Z,975.1977
2024-05-09T10:52:40.065Z,975.1650
2024-05-09T10:53:41.589Z,975.1546
2024-05-09T10:54:43.179Z,975.1623
2024-05-09T10:55:44.661Z,975.1484
2024-05-09T10:56:46.199Z,975.1454
2024-05-09T10:57:47.763Z,975.1508
2024-05-09T10:58:49.267Z,975.1508
2024-05-09T10:59:50.795Z,975.1492
2024-05-09T11:00:52.397Z,975.1492
2024-05-09T11:01:54.635Z,975.1400
2024-05-09T11:02:55.409Z,975.1285
2024-05-09T11:03:57.011Z,975.1270
2024-05-09T11:04:58.518Z,975.1238
2024-05-09T11:05:59.948Z,975.1215
2024-05-09T11:07:02.893Z,975.1339
2024-05-09T11:08:03.038Z,975.1208
2024-05-09T11:09:04.753Z,975.0977
2024-05-09T11:10:09.661Z,975.0939
2024-05-09T11:11:08.998Z,975.1008
2024-05-09T11:12:09.261Z,975.0942
2024-05-09T11:13:10.778Z,975.0869
2024-05-09T11:14:12.214Z,975.0600
2024-05-09T11:15:13.755Z,975.0615
2024-05-09T11:16:15.317Z,975.0754
2024-05-09T11:17:16.826Z,975.0754
2024-05-09T11:18:19.799Z,975.0670
2024-05-09T11:19:20.152Z,975.0500
2024-05-09T11:20:26.959Z,975.0577
2024-05-09T11:21:22.920Z,975.0608
2024-05-09T11:22:24.479Z,975.0538
2024-05-09T11:23:25.990Z,975.0485
2024-05-09T11:24:27.646Z,975.0700
2024-05-09T11:25:29.027Z,975.0823
2024-05-09T11:26:30.555Z,975.0946
2024-05-09T11:27:32.124Z,975.0885
2024-05-09T11:28:33.641Z,975.0954
2024-05-09T11:29:35.156Z,975.0892
2024-05-09T11:30:36.720Z,975.0800
2024-05-09T11:31:38.260Z,975.0754
2024-05-09T11:32:39.801Z,975.0700
2024-05-09T11:33:41.490Z,975.0777
2024-05-09T11:34:42.991Z,975.0708
2024-05-09T11:35:44.353Z,975.0477
2024-05-09T11:36:45.920Z,975.0485
2024-05-09T11:37:48.058Z,975.0493
2024-05-09T11:38:49.584Z,975.0450
2024-05-09T11:39:50.536Z,975.0325
2024-05-09T11:40:52.082Z,975.0192
2024-05-09T11:41:53.522Z,975.0092
2024-05-09T11:42:55.144Z,974.9877
2024-05-09T11:43:56.624Z,974.9769
2024-05-09T11:44:58.117Z,974.9792
2024-05-09T11:45:59.800Z,974.9731
2024-05-09T11:47:01.221Z,974.9661
2024-05-09T11:48:02.999Z,974.9585
2024-05-09T11:49:04.431Z,974.9592
2024-05-09T11:50:08.322Z,974.9462
2024-05-09T11:51:07.297Z,974.9233
2024-05-09T11:52:08.923Z,974.9153
2024-05-09T11:53:10.374Z,974.8984
2024-05-09T11:54:11.898Z,974.9039
2024-05-09T11:55:13.426Z,974.9300
2024-05-09T11:56:14.974Z,974.9408
2024-05-09T11:57:16.541Z,974.9408
2024-05-09T11:58:18.859Z,974.9500
2024-05-09T11:59:19.572Z,974.9515
2024-05-09T12:00:29.282Z,974.9423
2024-05-09T12:01:25.075Z,974.9346
2024-05-09T12:02:24.423Z,974.9300
2024-05-09T12:03:25.736Z,974.9292
2024-05-09T12:04:27.317Z,974.9177
2024-05-09T12:05:29.067Z,974.9046
2024-05-09T12:06:30.244Z,974.8831
2024-05-09T12:07:31.839Z,974.8531
2024-05-09T12:08:33.290Z,974.8262